Time;durP1;ratioP1;P1;durP2;ratioP2;P2;SDS_P1;SDS_P2;PMS_P1;PMS_P2;Temp;Humidity;BMP_temperature;BMP_pressure;BME280_temperature;BME280_humidity;BME280_pressure;Samples;Min_cycle;Max_cycle;Signal;HPM_P1;HPM_P2
2023/05/30 08:06:13;;;;;;;4.33;2.20;;;;;;;23.91;63.57;98946.09;6122199;23;20281;31
2023/05/30 08:08:41;;;;;;;3.80;1.83;;;;;;;24.03;64.81;98948.22;4958619;28;20215;-89
2023/05/30 08:11:06;;;;;;;6.80;2.23;;;;;;;24.04;63.55;98943.72;4977458;28;20262;-89
2023/05/30 08:13:32;;;;;;;3.43;1.80;;;;;;;24.09;64.42;98952.09;4959862;28;20266;-89
2023/05/30 08:15:57;;;;;;;3.70;1.60;;;;;;;24.18;64.56;98951.09;4977090;28;20180;-87
2023/05/30 08:18:23;;;;;;;6.87;1.87;;;;;;;24.24;63.84;98945.06;4975733;28;20208;-88
2023/05/30 08:20:54;;;;;;;3.27;1.80;;;;;;;24.24;63.55;98950.44;4977034;28;20180;-88
2023/05/30 08:23:21;;;;;;;3.20;1.83;;;;;;;24.35;62.30;98950.03;4976712;28;20171;-88
2023/05/30 08:25:47;;;;;;;2.93;1.40;;;;;;;24.23;63.07;98949.59;4959620;28;20262;-89
2023/05/30 08:28:23;;;;;;;4.27;1.87;;;;;;;24.45;63.24;98947.97;4974715;28;20609;-89
2023/05/30 08:30:59;;;;;;;7.83;2.10;;;;;;;24.70;62.22;98946.91;4977075;28;20165;-89
2023/05/30 08:33:29;;;;;;;3.67;2.00;;;;;;;24.80;62.85;98939.50;4960182;28;20533;-88
2023/05/30 08:35:57;;;;;;;3.17;1.70;;;;;;;24.88;63.93;98939.47;4976540;28;20176;-89
2023/05/30 08:38:33;;;;;;;3.30;1.57;;;;;;;24.92;62.51;98945.31;4975422;28;20208;-89
2023/05/30 08:41:13;;;;;;;2.60;1.60;;;;;;;25.19;62.50;98946.66;4976819;28;20256;-89
2023/05/30 08:43:41;;;;;;;2.57;1.27;;;;;;;25.46;60.02;98941.63;4975182;28;20223;-89
2023/05/30 08:46:57;;;;;;;;;;;;;;;;;;;;;
2023/05/30 08:50:20;;;;;;;;;;;;;;;;;;;;;
2023/05/30 08:53:21;;;;;;;;;;;;;;;;;;;;;
2023/05/30 09:00:18;;;;;;;;;;;;;;;;;;;;;
2023/05/30 09:03:01;;;;;;;;;;;;;;;;;;;;;
2023/05/30 09:06:25;;;;;;;;;;;;;;;;;;;;;
2023/05/30 09:09:25;;;;;;;3.33;1.50;;;;;;;26.31;57.17;98949.44;4970826;28;20611;-89
2023/05/30 09:12:11;;;;;;;3.50;1.60;;;;;;;26.32;57.57;98949.22;4976133;28;20176;-89
2023/05/30 09:19:04;;;;;;;3.30;1.40;;;;;;;26.58;55.59;98946.06;4816886;29;20240;-89
2023/05/30 10:48:28;;;;;;;;;;;;;;;;;;;;;
2023/05/30 11:02:20;;;;;;;;;;;;;;;;;;;;;
2023/05/30 11:05:21;;;;;;;3.65;1.70;;;;;;;29.23;44.04;98873.16;4804293;29;20199;-91
2023/05/30 11:08:07;;;;;;;2.90;1.50;;;;;;;29.04;42.99;98878.47;4802193;29;20187;-91
2023/05/30 11:10:40;;;;;;;3.63;1.92;;;;;;;29.16;43.54;98866.91;4889694;29;20291;-90
2023/05/30 11:13:30;;;;;;;;;;;;;;;;;;;;;
2023/05/30 11:16:01;;;;;;;2.67;1.48;;;;;;;29.44;43.98;98853.22;4968298;28;20613;-91
2023/05/30 11:18:40;;;;;;;5.30;1.90;;;;;;;28.99;43.28;98862.91;5025796;28;20217;-91
2023/05/30 11:21:06;;;;;;;4.18;1.77;;;;;;;28.86;44.29;98845.84;5016629;28;20301;-90
2023/05/30 11:23:34;;;;;;;2.95;1.80;;;;;;;28.95;46.29;98847.34;5032799;28;20183;-91
2023/05/30 11:26:00;;;;;;;2.45;1.55;;;;;;;29.09;46.57;98843.59;5015513;28;20365;-90
2023/05/30 11:28:34;;;;;;;4.22;1.80;;;;;;;28.99;45.10;98844.00;5015323;28;20295;-90
2023/05/30 11:31:14;;;;;;;5.70;1.65;;;;;;;28.78;45.50;98848.72;5032971;28;20170;-91
2023/05/30 11:33:41;;;;;;;3.80;2.10;;;;;;;28.78;46.09;98852.25;5033215;28;20616;-89
2023/05/30 11:36:10;;;;;;;2.55;1.30;;;;;;;28.81;44.98;98851.03;5032907;28;20174;-90
2023/05/30 11:38:52;;;;;;;3.25;1.98;;;;;;;28.98;46.06;98841.53;5032559;28;20248;-90
2023/05/30 11:41:17;;;;;;;4.38;1.95;;;;;;;28.81;44.31;98840.22;5015142;28;20269;-89
2023/05/30 11:43:46;;;;;;;3.10;1.63;;;;;;;29.05;45.05;98834.25;5032531;28;20638;-90
2023/05/30 11:46:17;;;;;;;3.33;1.60;;;;;;;29.39;47.80;98836.81;5032863;28;20197;-90
2023/05/30 11:49:16;;;;;;;4.28;2.03;;;;;;;29.50;44.40;98829.97;5032798;28;20533;-91
2023/05/30 11:51:46;;;;;;;3.95;1.75;;;;;;;29.61;44.81;98830.16;5033149;28;20174;-91
2023/05/30 11:54:11;;;;;;;3.53;1.80;;;;;;;29.62;43.53;98839.91;5015386;28;20522;-90
2023/05/30 11:56:37;;;;;;;3.50;1.80;;;;;;;29.46;42.68;98828.69;5014911;28;20186;-90
2023/05/30 11:59:02;;;;;;;4.35;1.92;;;;;;;29.63;42.87;98832.66;5015224;28;20186;-91
2023/05/30 12:01:30;;;;;;;4.65;1.80;;;;;;;29.50;43.41;98825.41;5032662;28;20198;-90
2023/05/30 12:03:56;;;;;;;3.30;1.92;;;;;;;29.43;42.43;98824.53;5035039;28;20198;-89
2023/05/30 12:06:22;;;;;;;3.30;1.50;;;;;;;29.41;44.07;98825.78;5035790;28;20180;-89
2023/05/30 12:08:50;;;;;;;4.03;1.83;;;;;;;29.38;42.80;98827.03;5018302;28;20558;-89
2023/05/30 12:11:16;;;;;;;4.60;1.77;;;;;;;29.30;43.00;98824.53;5018221;28;20174;-90
2023/05/30 12:13:42;;;;;;;3.28;1.80;;;;;;;29.28;44.18;98825.78;5018274;28;20178;-90
2023/05/30 12:16:10;;;;;;;5.75;1.83;;;;;;;29.21;43.78;98821.25;5036007;28;20177;-89
2023/05/30 12:18:36;;;;;;;3.85;1.77;;;;;;;29.04;44.82;98825.34;5018147;28;20194;-90
2023/05/30 12:21:02;;;;;;;3.90;1.83;;;;;;;28.99;45.50;98825.13;5035911;28;20171;-90
2023/05/30 12:23:28;;;;;;;3.55;1.98;;;;;;;29.01;45.16;98824.94;5035831;28;20184;-90
2023/05/30 12:25:55;;;;;;;4.20;2.00;;;;;;;28.91;46.30;98828.00;5018077;28;20179;-90
2023/05/30 12:28:21;;;;;;;5.05;2.58;;;;;;;28.94;45.10;98827.59;5035485;28;20195;-89
2023/05/30 12:30:50;;;;;;;3.00;1.67;;;;;;;28.89;45.72;98827.38;5035321;28;20232;-89
2023/05/30 12:33:17;;;;;;;4.35;2.30;;;;;;;28.75;46.93;98835.66;5035623;28;20198;-89
2023/05/30 12:35:45;;;;;;;9.85;4.00;;;;;;;28.47;47.98;98831.19;5035628;28;20186;-89
2023/05/30 12:38:12;;;;;;;5.55;2.30;;;;;;;28.21;49.75;98822.97;5018016;28;20209;-89
2023/05/30 12:40:56;;;;;;;6.75;1.80;;;;;;;28.19;49.58;98833.13;5017767;28;20668;-89
2023/05/30 12:43:29;;;;;;;4.30;1.98;;;;;;;28.09;50.42;98832.69;5035594;28;20245;-89
2023/05/30 12:46:03;;;;;;;11.32;2.35;;;;;;;27.83;51.17;98822.53;5017567;28;20610;-90
2023/05/30 12:48:31;;;;;;;4.13;1.92;;;;;;;27.68;53.10;98840.66;5018326;28;20617;-89
2023/05/30 12:51:53;;;;;;;;;;;;;;;;;;;;;
2023/05/30 12:55:12;;;;;;;;;;;;;;;;;;;;;
2023/05/30 12:58:22;;;;;;;6.43;2.72;;;;;;;27.02;57.32;98844.63;4941161;29;20217;-90
2023/05/30 16:33:32;;;;;;;6.80;3.30;;;;;;;26.65;63.37;98861.78;4991724;28;20179;-89
2023/05/30 16:36:49;;;;;;;6.03;3.42;;;;;;;26.54;63.72;98864.13;4968386;28;20198;-88
2023/05/30 16:39:17;;;;;;;11.80;3.55;;;;;;;26.47;64.86;98879.31;4995808;28;20192;-89
2023/05/30 16:42:05;;;;;;;5.85;3.85;;;;;;;26.44;65.12;98869.78;4979627;28;20184;-88
2023/05/30 16:44:33;;;;;;;6.07;3.17;;;;;;;26.40;65.03;98881.09;4978700;28;20176;-89
2023/05/30 16:47:12;;;;;;;;;;;;;;;;;;;;;
2023/05/30 16:49:37;;;;;;;7.20;3.83;;;;;;;26.20;64.21;98888.91;4994993;28;20184;-88
2023/05/30 16:52:18;;;;;;;;;;;;;;;;;;;;;
2023/05/30 16:57:36;;;;;;;6.85;3.78;;;;;;;25.95;64.62;98887.47;4988744;28;20568;-88
2023/05/30 17:00:04;;;;;;;7.57;3.88;;;;;;;25.81;64.49;98897.19;4995871;28;20617;-89
2023/05/30 17:02:35;;;;;;;6.05;3.50;;;;;;;25.73;65.11;98908.03;4995530;28;20190;-88
2023/05/30 17:05:03;;;;;;;7.85;3.90;;;;;;;25.72;65.29;98900.97;4996076;28;20163;-88
2023/05/30 17:07:29;;;;;;;7.53;4.05;;;;;;;25.66;65.05;98904.38;4995722;28;20246;-89
2023/05/30 17:09:57;;;;;;;5.80;3.40;;;;;;;25.68;65.73;98897.00;4995693;28;20191;-89
2023/05/30 17:12:25;;;;;;;5.68;3.15;;;;;;;25.73;65.36;98907.19;4995382;28;20218;-88
2023/05/30 17:14:50;;;;;;;6.60;3.75;;;;;;;25.61;65.93;98909.44;4978140;28;20642;-88
2023/05/30 17:17:16;;;;;;;8.88;4.28;;;;;;;25.51;66.33;98915.09;4995229;28;20280;-88
2023/05/30 17:19:51;;;;;;;;;;;;;;;;;;;;;
2023/05/30 17:22:24;;;;;;;8.13;3.85;;;;;;;25.31;66.38;98918.41;4995965;28;20597;-88
2023/05/30 17:24:50;;;;;;;7.97;3.13;;;;;;;25.24;66.37;98923.63;5009300;28;20269;-88
2023/05/30 17:27:15;;;;;;;7.55;3.78;;;;;;;25.16;66.39;98926.38;4997294;28;20617;-87
2023/05/30 17:29:41;;;;;;;8.95;3.83;;;;;;;25.03;66.64;98913.56;5014899;28;20186;-87
2023/05/30 17:32:07;;;;;;;8.88;4.15;;;;;;;24.98;66.91;98918.63;4997288;28;20191;-88
2023/05/30 17:34:33;;;;;;;6.05;3.67;;;;;;;24.94;67.41;98922.69;5014463;28;20183;-88
2023/05/30 17:36:58;;;;;;;7.97;4.00;;;;;;;24.97;67.24;98913.44;5014371;28;20205;-88
2023/05/30 17:39:24;;;;;;;7.13;3.88;;;;;;;25.10;66.67;98921.75;4998201;28;20191;-88
2023/05/30 17:41:52;;;;;;;6.53;4.57;;;;;;;25.26;65.86;98926.16;5014636;28;20175;-88
2023/05/30 17:44:18;;;;;;;7.87;4.57;;;;;;;25.29;65.58;98925.81;5014568;28;20210;-87
2023/05/30 17:46:43;;;;;;;9.10;5.10;;;;;;;25.29;65.52;98929.31;5014798;28;20198;-88
2023/05/30 17:49:12;;;;;;;9.77;4.20;;;;;;;25.26;65.53;98929.66;4996903;28;20211;-87
2023/05/30 17:51:37;;;;;;;6.60;3.90;;;;;;;25.22;65.22;98931.03;5014172;28;20184;-88
2023/05/30 17:54:02;;;;;;;14.53;4.97;;;;;;;25.18;65.07;98934.25;5014412;28;20254;-87
2023/05/30 17:56:29;;;;;;;8.70;4.83;;;;;;;25.10;65.41;98943.19;4996988;28;20198;-88
2023/05/30 17:58:58;;;;;;;6.73;4.43;;;;;;;25.02;65.58;98946.78;5014493;28;20206;-87
2023/05/30 18:01:29;;;;;;;6.50;4.13;;;;;;;25.02;65.79;98941.41;5014038;28;20175;-87
2023/05/30 18:03:54;;;;;;;7.90;4.83;;;;;;;24.91;66.17;98949.84;5020763;28;20197;-88
2023/05/30 18:06:22;;;;;;;6.73;4.13;;;;;;;24.83;66.38;98957.09;5018784;28;20179;-88
2023/05/30 18:08:55;;;;;;;7.33;3.77;;;;;;;24.84;66.46;98954.22;5014101;28;20171;-88
2023/05/30 18:11:21;;;;;;;8.70;4.80;;;;;;;24.92;66.66;98958.72;5013804;28;20168;-87
2023/05/30 18:13:46;;;;;;;10.13;4.97;;;;;;;24.86;66.50;98965.63;4997021;28;20190;-88
2023/05/30 18:16:14;;;;;;;6.07;3.97;;;;;;;24.81;66.64;98967.16;4996717;28;20639;-87
2023/05/30 18:18:42;;;;;;;5.57;3.73;;;;;;;24.66;67.18;98966.19;4996203;28;20203;-88
2023/05/30 18:21:08;;;;;;;7.67;4.33;;;;;;;24.53;67.84;98969.41;4996432;28;20183;-87
2023/05/30 18:23:34;;;;;;;10.37;4.63;;;;;;;24.46;68.09;98981.81;5010091;28;20702;-88
2023/05/30 18:26:01;;;;;;;6.23;4.00;;;;;;;24.44;67.81;98973.97;4976838;28;20266;-88
2023/05/30 18:28:27;;;;;;;7.33;4.33;;;;;;;24.38;68.47;98987.19;4994212;28;20183;-88
2023/05/30 18:30:52;;;;;;;5.83;3.60;;;;;;;24.27;68.31;98990.25;5003118;28;20179;-88
2023/05/30 18:33:18;;;;;;;8.07;3.97;;;;;;;24.18;69.17;98994.78;4996621;28;20189;-88
2023/05/30 18:35:43;;;;;;;5.67;3.57;;;;;;;24.12;69.22;99005.34;5013217;28;20181;-88
2023/05/30 18:38:09;;;;;;;7.07;4.10;;;;;;;24.09;69.15;99014.53;4996332;28;20736;-88
2023/05/30 18:40:34;;;;;;;9.97;4.33;;;;;;;24.04;70.02;99026.72;5013324;28;20253;-88
2023/05/30 18:43:00;;;;;;;8.57;4.37;;;;;;;24.11;69.39;99025.91;5013084;28;20179;-88
2023/05/30 18:45:26;;;;;;;5.93;3.80;;;;;;;24.24;68.69;99025.44;4995860;28;20626;-88
2023/05/30 18:47:51;;;;;;;7.87;4.30;;;;;;;24.26;67.30;99028.78;4995699;28;20545;-88
2023/05/30 18:50:17;;;;;;;8.80;4.20;;;;;;;24.21;67.61;99021.22;5013030;28;20182;-88
2023/05/30 18:52:45;;;;;;;6.93;4.37;;;;;;;24.15;68.20;99021.91;5013155;28;20179;-88
2023/05/30 18:55:14;;;;;;;8.17;4.17;;;;;;;24.09;68.39;99027.09;5013303;28;20665;-88
2023/05/30 18:57:39;;;;;;;6.70;4.50;;;;;;;23.98;69.55;99030.09;4995559;28;20210;-88
2023/05/30 19:00:08;;;;;;;7.40;4.70;;;;;;;24.04;69.23;99026.72;5013010;28;20637;-87
2023/05/30 19:02:34;;;;;;;12.33;4.57;;;;;;;24.07;69.43;99037.13;5013161;28;20179;-88
2023/05/30 19:05:02;;;;;;;6.03;3.57;;;;;;;24.09;69.26;99032.44;4995668;28;20206;-87
2023/05/30 19:07:32;;;;;;;7.97;4.33;;;;;;;24.04;68.48;99040.13;5013269;28;20201;-88
2023/05/30 19:10:00;;;;;;;6.73;4.30;;;;;;;24.04;68.80;99038.28;5012813;28;20268;-87
2023/05/30 19:12:27;;;;;;;6.57;4.07;;;;;;;24.06;68.37;99043.47;4995556;28;20225;-87
2023/05/30 19:15:00;;;;;;;11.97;4.47;;;;;;;24.02;68.69;99045.66;4999694;28;20780;-88
2023/05/30 19:17:25;;;;;;;7.90;4.33;;;;;;;24.04;68.84;99042.81;4999645;28;20285;-87
2023/05/30 19:19:53;;;;;;;7.83;4.17;;;;;;;24.05;68.38;99034.63;5016736;28;20166;-88
2023/05/30 19:22:21;;;;;;;7.73;4.43;;;;;;;24.01;68.29;99035.09;5017280;28;20233;-88
2023/05/30 19:24:55;;;;;;;6.97;4.43;;;;;;;24.02;68.30;99039.47;5030071;28;20193;-88
2023/05/30 19:27:30;;;;;;;8.13;4.87;;;;;;;24.01;68.40;99040.47;5036873;28;20518;-88
2023/05/30 19:30:01;;;;;;;7.20;4.20;;;;;;;24.02;67.75;99047.50;5018799;28;20170;-89
2023/05/30 19:32:27;;;;;;;8.53;4.17;;;;;;;23.98;67.78;99046.97;5018972;28;20620;-88
2023/05/30 19:34:58;;;;;;;6.97;4.30;;;;;;;23.90;67.76;99041.63;5019162;28;20272;-88
2023/05/30 19:37:31;;;;;;;6.47;4.20;;;;;;;23.84;67.92;99059.22;5036657;28;20224;-88
2023/05/30 19:39:59;;;;;;;8.23;4.20;;;;;;;23.83;67.99;99054.00;5036197;28;20190;-89
2023/05/30 19:42:25;;;;;;;6.60;4.03;;;;;;;23.80;67.43;99051.66;5036313;28;20648;-87
2023/05/30 19:44:50;;;;;;;7.53;3.80;;;;;;;23.74;67.70;99049.66;5036012;28;20257;-89
2023/05/30 19:47:16;;;;;;;5.27;3.60;;;;;;;23.71;67.75;99047.31;5036181;28;20167;-87
2023/05/30 19:49:41;;;;;;;7.57;3.70;;;;;;;23.74;67.27;99047.81;5035870;28;20536;-88
2023/05/30 19:52:09;;;;;;;5.40;3.30;;;;;;;23.69;67.27;99047.47;5035969;28;20506;-88
2023/05/30 19:54:38;;;;;;;5.53;3.57;;;;;;;23.63;67.38;99045.47;5018466;28;20186;-88
2023/05/30 19:57:05;;;;;;;6.20;3.93;;;;;;;23.60;67.52;99051.16;5018880;28;20696;-88
2023/05/30 19:59:30;;;;;;;6.83;3.60;;;;;;;23.51;68.12;99049.44;5026983;28;20178;-88
2023/05/30 20:01:55;;;;;;;5.00;3.13;;;;;;;23.44;68.31;99042.25;5015655;28;20179;-88
2023/05/30 20:04:21;;;;;;;7.27;3.07;;;;;;;23.37;68.27;99044.75;4999288;28;20203;-89
2023/05/30 20:06:47;;;;;;;8.13;3.50;;;;;;;23.30;68.86;99046.34;5016656;28;20175;-89
2023/05/30 20:09:27;;;;;;;6.53;3.40;;;;;;;23.18;69.42;99047.66;4998778;28;20183;-89
2023/05/30 20:11:52;;;;;;;5.17;3.03;;;;;;;23.13;69.54;99044.66;5016645;28;20174;-88
2023/05/30 20:14:18;;;;;;;7.57;3.03;;;;;;;23.14;69.77;99046.31;5016314;28;20187;-88
2023/05/30 20:16:44;;;;;;;5.73;2.60;;;;;;;23.11;69.57;99047.47;4998536;28;20584;-88
2023/05/30 20:19:12;;;;;;;5.53;3.10;;;;;;;23.05;69.61;99041.94;5015948;28;20186;-89
2023/05/30 20:21:37;;;;;;;5.13;3.00;;;;;;;23.14;68.79;99046.31;5016394;28;20206;-88
2023/05/30 20:24:05;;;;;;;8.47;3.20;;;;;;;23.18;68.52;99053.03;5008424;28;20195;-88
2023/05/30 20:26:31;;;;;;;6.03;3.37;;;;;;;23.09;68.76;99048.63;4996550;28;20238;-87
2023/05/30 20:28:58;;;;;;;9.60;3.40;;;;;;;22.97;69.30;99050.78;4996160;28;20179;-88
2023/05/30 20:31:26;;;;;;;7.87;3.27;;;;;;;22.90;69.51;99062.28;4996401;28;20175;-88
2023/05/30 20:33:51;;;;;;;5.60;2.90;;;;;;;22.77;70.26;99061.88;4996378;28;20182;-88
2023/05/30 20:36:20;;;;;;;6.20;2.67;;;;;;;22.77;70.08;99057.38;4979127;28;20184;-88
2023/05/30 20:38:46;;;;;;;6.40;3.33;;;;;;;22.81;70.14;99049.84;4978673;28;20654;-89
2023/05/30 20:41:15;;;;;;;6.87;3.17;;;;;;;22.79;69.80;99057.19;4996226;28;20176;-88
2023/05/30 20:43:40;;;;;;;9.53;2.70;;;;;;;22.76;69.54;99055.69;4978766;28;20198;-87
2023/05/30 20:46:06;;;;;;;5.30;2.37;;;;;;;22.69;69.70;99062.66;4978729;28;20188;-88
2023/05/30 20:48:31;;;;;;;7.47;2.43;;;;;;;22.66;70.17;99054.13;4995843;28;20587;-87
2023/05/30 20:50:57;;;;;;;5.83;3.10;;;;;;;22.59;70.19;99052.03;4978602;28;20186;-88
2023/05/30 20:53:25;;;;;;;6.77;2.70;;;;;;;22.57;70.38;99053.19;4996309;28;20257;-88
2023/05/30 20:55:51;;;;;;;6.30;2.57;;;;;;;22.59;69.74;99052.03;4978776;28;20180;-88
2023/05/30 20:58:21;;;;;;;8.03;2.77;;;;;;;22.61;69.08;99044.69;4978435;28;20214;-88
2023/05/30 21:00:49;;;;;;;4.20;2.43;;;;;;;22.61;68.09;99043.88;4995562;28;20166;-88
2023/05/30 21:03:16;;;;;;;6.00;2.43;;;;;;;22.63;67.42;99047.25;4995776;28;20689;-88
2023/05/30 21:05:41;;;;;;;4.60;2.27;;;;;;;22.56;67.70;99047.00;4995518;28;20207;-88
2023/05/30 21:08:09;;;;;;;4.63;2.43;;;;;;;22.50;68.10;99046.81;4978372;28;20207;-88
2023/05/30 21:10:35;;;;;;;5.83;3.20;;;;;;;22.47;68.69;99042.63;4978341;28;20190;-88
2023/05/30 21:13:00;;;;;;;9.37;2.63;;;;;;;22.43;69.02;99037.78;4994432;28;20263;-88
2023/05/30 21:15:26;;;;;;;6.07;2.70;;;;;;;22.39;69.52;99033.72;4978245;28;20211;-88
2023/05/30 21:17:52;;;;;;;5.33;2.53;;;;;;;22.35;69.93;99038.53;4995195;28;20203;-87
2023/05/30 21:20:17;;;;;;;8.07;3.13;;;;;;;22.31;70.04;99037.19;4978091;28;20218;-88
2023/05/30 21:22:43;;;;;;;6.33;2.60;;;;;;;22.16;70.48;99045.94;4994184;28;20323;-88
2023/05/30 21:25:09;;;;;;;9.57;2.53;;;;;;;22.15;70.75;99046.91;4995791;28;20195;-89
2023/05/30 21:27:37;;;;;;;4.00;2.23;;;;;;;22.15;71.26;99042.41;4995354;28;20204;-87
2023/05/30 21:30:02;;;;;;;5.27;2.47;;;;;;;22.18;71.18;99047.44;4995544;28;20543;-87
2023/05/30 21:32:30;;;;;;;7.07;2.53;;;;;;;22.21;71.19;99047.13;4995210;28;20258;-88
2023/05/30 21:34:58;;;;;;;6.60;3.17;;;;;;;22.09;71.30;99048.34;4995255;28;20661;-90
2023/05/30 21:37:26;;;;;;;6.93;2.70;;;;;;;21.98;72.40;99051.31;4994254;28;20207;-87
2023/05/30 21:39:51;;;;;;;5.70;2.53;;;;;;;22.04;72.20;99056.00;4995400;28;20242;-88
2023/05/30 21:42:17;;;;;;;4.07;2.20;;;;;;;22.06;72.15;99048.69;4994744;28;20183;-88
2023/05/30 21:44:58;;;;;;;4.60;2.43;;;;;;;22.02;72.41;99049.97;4994747;28;20183;-88
2023/05/30 21:48:14;;;;;;;;;;;;;;;;;;;;;
2023/05/30 21:54:10;;;;;;;4.27;2.27;;;;;;;22.04;71.86;99042.66;4974002;28;20624;-88
2023/05/30 21:57:25;;;;;;;;;;;;;;;;;;;;;
2023/05/30 21:59:56;;;;;;;5.77;2.83;;;;;;;22.15;70.94;99039.75;4995137;28;20168;-89
2023/05/30 22:02:35;;;;;;;;;;;;;;;;;;;;;
2023/05/30 22:05:10;;;;;;;6.60;2.70;;;;;;;22.02;71.43;99044.66;4994959;28;20617;-89
2023/05/30 22:07:47;;;;;;;12.10;2.80;;;;;;;21.95;71.19;99040.94;4977782;28;20171;-88
2023/05/30 22:10:30;;;;;;;4.73;2.20;;;;;;;21.92;71.68;99033.22;4977477;28;20182;-88
2023/05/30 22:12:56;;;;;;;4.80;2.70;;;;;;;22.03;70.80;99038.31;4978190;28;20254;-87
2023/05/30 22:15:21;;;;;;;11.03;3.20;;;;;;;22.13;70.07;99031.06;4994062;28;20635;-87
2023/05/30 22:17:51;;;;;;;9.33;3.00;;;;;;;22.15;70.33;99033.56;4993145;28;20290;-88
2023/05/30 22:20:17;;;;;;;6.57;2.73;;;;;;;22.03;70.76;99033.00;4994689;28;20266;-87
2023/05/30 22:23:30;;;;;;;;;;;;;;;;;;;;;
2023/05/30 22:26:11;;;;;;;5.50;2.40;;;;;;;21.89;71.07;99036.19;4994351;28;20183;-88
2023/05/30 22:29:18;;;;;;;6.87;2.33;;;;;;;21.85;71.08;99033.00;4994329;28;20602;-87
2023/05/30 22:31:54;;;;;;;7.00;2.80;;;;;;;21.78;71.92;99028.41;4977043;28;20194;-88
2023/05/30 22:34:22;;;;;;;5.60;2.63;;;;;;;21.68;72.05;99028.47;4976830;28;20179;-88
2023/05/30 22:37:18;;;;;;;7.30;3.00;;;;;;;21.71;71.96;99025.53;4994413;28;20615;-88
2023/05/30 22:40:12;;;;;;;6.13;2.97;;;;;;;21.83;71.20;99015.44;4977627;28;20203;-88
2023/05/30 22:42:39;;;;;;;5.90;3.23;;;;;;;21.82;71.28;99009.28;4993349;28;20303;-88
2023/05/30 22:45:11;;;;;;;7.50;3.30;;;;;;;21.73;71.77;99015.53;4976648;28;20191;-88
2023/05/30 22:47:39;;;;;;;5.60;3.53;;;;;;;21.63;72.03;99005.94;4975703;28;20231;-89
2023/05/30 22:50:30;;;;;;;8.27;3.20;;;;;;;21.67;72.06;99009.97;4976600;28;20209;-88
2023/05/30 22:55:43;;;;;;;5.33;2.90;;;;;;;21.64;72.47;99011.13;4986610;28;20195;-88
2023/05/30 23:01:20;;;;;;;6.17;3.13;;;;;;;21.58;72.77;99005.53;4985650;28;20670;-87
2023/05/30 23:04:00;;;;;;;;;;;;;;;;;;;;;
2023/05/30 23:06:31;;;;;;;6.93;3.10;;;;;;;21.48;73.45;99002.97;4994150;28;20164;-88
2023/05/30 23:09:14;;;;;;;6.73;2.77;;;;;;;21.49;73.68;98996.63;4993194;28;20180;-88
2023/05/30 23:11:43;;;;;;;4.43;2.47;;;;;;;21.51;73.88;98993.81;4994352;28;20164;-88
2023/05/30 23:14:39;;;;;;;;;;;;;;;;;;;;;
2023/05/30 23:17:35;;;;;;;;;;;;;;;;;;;;;
2023/05/30 23:20:37;;;;;;;;;;;;;;;;;;;;;
2023/05/30 23:23:13;;;;;;;4.53;2.70;;;;;;;21.66;73.08;99009.13;4994028;28;20174;-89
2023/05/30 23:25:45;;;;;;;13.47;3.03;;;;;;;21.61;73.50;99002.56;5013646;28;20171;-89
2023/05/30 23:28:11;;;;;;;6.97;2.63;;;;;;;21.58;73.46;99011.72;4995745;28;20229;-89
2023/05/30 23:30:50;;;;;;;8.03;2.80;;;;;;;21.56;73.39;98999.53;4995627;28;20179;-88
2023/05/30 23:33:19;;;;;;;4.77;2.70;;;;;;;21.57;73.58;98999.38;4996739;28;20194;-87
2023/05/30 23:35:47;;;;;;;5.43;3.03;;;;;;;21.57;73.67;99004.69;4995633;28;20186;-88
2023/05/30 23:38:35;;;;;;;16.60;3.47;;;;;;;21.54;74.52;98998.84;4995817;28;20207;-88
2023/05/30 23:41:31;;;;;;;;;;;;;;;;;;;;;
2023/05/30 23:43:59;;;;;;;5.40;3.07;;;;;;;21.53;74.23;98997.16;5012912;28;20198;-88
2023/05/30 23:46:25;;;;;;;5.33;2.80;;;;;;;21.50;74.15;98987.66;5013056;28;20262;-88
2023/05/30 23:48:50;;;;;;;6.23;2.87;;;;;;;21.55;73.85;98990.69;5013080;28;20213;-87
2023/05/30 23:51:16;;;;;;;6.53;2.80;;;;;;;21.69;72.47;98994.66;4995754;28;20174;-87
2023/05/30 23:53:42;;;;;;;6.13;2.73;;;;;;;21.70;72.45;98993.63;4995464;28;20191;-88
2023/05/30 23:56:10;;;;;;;5.00;2.90;;;;;;;21.66;72.82;98994.94;4995387;28;20214;-88
2023/05/30 23:58:35;;;;;;;11.17;3.67;;;;;;;21.56;73.11;98986.19;5012717;28;20203;-88
